Main page
METAR-TAF:

METAR-TAF

Airports :

Pärnu, Estonia

Pärnu Airport

latitude: 58-25-09N, longitude: 024-28-22E, elevation: 14 m

Current weather observation

The report was made 5 hours and 39 minutes ago, at 10:50 UTC
Wind 4 kt from the East, varying between Northeast and South/Southeast
Temperature -8°C
Humidity 92%
Pressure 1026 hPa
Visibility: 1600 m
Broken clouds at a height of 900 ft
Overcast at a height of 1500 ft
snow

METAR: EEPU 231050Z 10004KT 040V150 1600 SN BKN009 OVC015 M08/M09 Q1026

Time: 18:29 (16:29 UTC)


TAF: missing

Weather observations and forecasts of more than 4000 airports (METAR and TAF reports).

The available stations are represented by yellow and red dots on the map.

Hover mouse over dot to see the name of the station.

Then click to see weather observations and forecasts.

To change the map : click on the green buttons with a black cross to zoom in, on the green button with a dash to zoom out, or on the green arrows for adjacent maps.


METAR-TAF: